»·PEaware :: N522L KBLH-KSBA

N522L :: KBLH-KSBA

FLIGHT INFORMATION

Flight Status: Arrived
Operator: Privately registered:
United States
More flights under this callsign
Pilot: Merv A. (1555)
Aircraft: Unknown
(LEG2)
More flights by this aircraft type
Origin: KBLH Blythe
United States
Destination: KSBA Santa Barbara Mun
United States
More flights between these airports :: More routes between these airports
Route: +
File this flight plan on PilotEdge
Remarks:
Altitude:
(Current/Filed)
6,500ft
Speed:
(Current/Filed)
240kts
Departed: 06-Jun-18 04:49 PM
Arrived: 06-Jun-18 06:12 PM
Distance/Time
Traveled:
259nm/1:23
Distance/Time
To Go:
Arrived

Flight Plot

Page will automatically refresh every two minutes.

Flight plan parsing failed; only flown route is shown


Map Options




Map Legend


Flown Route
Filed Route
Departure Airport
Arrival Airport
Navaid (VOR, NDB)
Fix

Horizontal Profiles

Position Reports

Time Latitude Longitude Heading Altitude Ground
Speed
06-Jun-18 16:21 33.614322 -114.714114 179 400ft 0kts
06-Jun-18 16:22 33.614322 -114.714114 179 400ft 0kts
06-Jun-18 16:23 33.614322 -114.714114 179 400ft 0kts
06-Jun-18 16:24 33.614322 -114.714114 179 400ft 0kts
06-Jun-18 16:25 33.614322 -114.714114 179 400ft 0kts
06-Jun-18 16:26 33.614322 -114.714114 179 400ft 0kts
06-Jun-18 16:27 33.614322 -114.714114 179 400ft 0kts
06-Jun-18 16:28 33.614322 -114.714114 179 400ft 0kts
06-Jun-18 16:29 33.614322 -114.714114 179 400ft 0kts
06-Jun-18 16:30 33.614322 -114.714114 179 400ft 0kts
06-Jun-18 16:31 33.614322 -114.714114 179 400ft 0kts
06-Jun-18 16:32 33.614322 -114.714114 179 400ft 0kts
06-Jun-18 16:33 33.614320 -114.714114 179 400ft 0kts
06-Jun-18 16:34 33.614316 -114.714114 179 400ft 0kts
06-Jun-18 16:35 33.614312 -114.714114 179 400ft 0kts
06-Jun-18 16:36 33.614308 -114.714114 179 400ft 0kts
06-Jun-18 16:37 33.614304 -114.714114 179 400ft 0kts
06-Jun-18 16:38 33.614300 -114.714114 178 400ft 0kts
06-Jun-18 16:39 33.614296 -114.714114 178 400ft 0kts
06-Jun-18 16:40 33.614292 -114.714114 178 400ft 0kts
06-Jun-18 16:41 33.614287 -114.714114 178 400ft 0kts
06-Jun-18 16:42 33.614230 -114.714250 270 400ft 1kts
06-Jun-18 16:43 33.615292 -114.715143 359 400ft 9kts
06-Jun-18 16:44 33.618252 -114.715136 0 400ft 13kts
06-Jun-18 16:45 33.619220 -114.715028 327 400ft 0kts
06-Jun-18 16:46 33.619244 -114.715979 270 400ft 0kts
06-Jun-18 16:47 33.624607 -114.716798 359 400ft 33kts
06-Jun-18 16:48 33.629672 -114.716744 171 400ft 7kts
06-Jun-18 16:49 33.619039 -114.716703 177 504ft 134kts
06-Jun-18 16:50 33.584643 -114.734401 258 1943ft 171kts
06-Jun-18 16:51 33.586755 -114.793987 270 3471ft 185kts
06-Jun-18 16:52 33.592516 -114.856917 272 4819ft 193kts
06-Jun-18 16:53 33.605725 -114.919899 287 6032ft 195kts
06-Jun-18 16:54 33.626175 -114.984251 287 6500ft 223kts
06-Jun-18 16:55 33.649118 -115.057448 287 6509ft 240kts
06-Jun-18 16:56 33.672704 -115.133002 287 6512ft 240kts
06-Jun-18 16:57 33.695822 -115.206828 287 6517ft 237kts
06-Jun-18 16:58 33.719066 -115.281196 287 6516ft 238kts
06-Jun-18 16:59 33.725180 -115.359030 263 6503ft 235kts
06-Jun-18 17:00 33.718185 -115.437050 260 6500ft 234kts
06-Jun-18 17:01 33.710373 -115.514591 258 6502ft 234kts
06-Jun-18 17:02 33.694708 -115.590307 253 6496ft 233kts
06-Jun-18 17:03 33.682049 -115.666574 260 6488ft 233kts
06-Jun-18 17:04 33.676365 -115.744136 262 6483ft 233kts
06-Jun-18 17:05 33.671183 -115.821916 262 6469ft 233kts
06-Jun-18 17:06 33.674972 -115.899775 285 6460ft 237kts
06-Jun-18 17:07 33.700585 -115.972742 290 6497ft 237kts
06-Jun-18 17:08 33.727525 -116.045209 293 6496ft 238kts
06-Jun-18 17:09 33.760391 -116.114159 296 6496ft 233kts
06-Jun-18 17:10 33.794252 -116.179491 299 6510ft 228kts
06-Jun-18 17:11 33.830903 -116.241520 300 6547ft 227kts
06-Jun-18 17:12 33.867684 -116.303254 300 6570ft 229kts
06-Jun-18 17:13 33.901393 -116.368074 281 6579ft 225kts
06-Jun-18 17:14 33.909245 -116.441684 254 6575ft 220kts
06-Jun-18 17:15 33.884564 -116.509236 242 6567ft 221kts
06-Jun-18 17:16 33.873232 -116.580472 277 6576ft 226kts
06-Jun-18 17:17 33.895986 -116.651297 289 6604ft 229kts
06-Jun-18 17:18 33.911356 -116.724839 274 6652ft 226kts
06-Jun-18 17:19 33.918799 -116.799696 273 6693ft 226kts
06-Jun-18 17:20 33.925976 -116.874984 273 6723ft 227kts
06-Jun-18 17:21 33.929713 -116.951629 267 6552ft 231kts
06-Jun-18 17:22 33.928581 -117.028601 266 6537ft 228kts
06-Jun-18 17:23 33.925794 -117.105007 261 6532ft 228kts
06-Jun-18 17:24 33.917575 -117.180757 260 6530ft 228kts
06-Jun-18 17:25 33.908989 -117.256959 260 6528ft 230kts
06-Jun-18 17:26 33.900551 -117.333396 263 6495ft 231kts
06-Jun-18 17:27 33.897929 -117.411197 267 6476ft 232kts
06-Jun-18 17:28 33.895911 -117.488832 266 6468ft 232kts
06-Jun-18 17:29 33.893900 -117.566620 266 6466ft 233kts
06-Jun-18 17:30 33.894427 -117.642852 277 6466ft 234kts
06-Jun-18 17:31 33.895149 -117.718781 255 6476ft 232kts
06-Jun-18 17:32 33.873093 -117.791038 223 6488ft 231kts
06-Jun-18 17:33 33.822850 -117.839176 220 6487ft 232kts
06-Jun-18 17:34 33.773764 -117.890455 220 6495ft 232kts
06-Jun-18 17:35 33.723996 -117.935561 215 6507ft 232kts
06-Jun-18 17:36 33.671682 -117.981047 215 6508ft 232kts
06-Jun-18 17:37 33.624526 -118.032678 241 6514ft 231kts
06-Jun-18 17:38 33.635260 -118.104569 301 6516ft 235kts
06-Jun-18 17:39 33.680410 -118.160217 319 6513ft 229kts
06-Jun-18 17:40 33.711588 -118.219192 246 6503ft 222kts
06-Jun-18 17:41 33.661919 -118.214465 127 6498ft 229kts
06-Jun-18 17:42 33.690937 -118.164343 345 6498ft 238kts
06-Jun-18 17:43 33.735761 -118.219177 308 6497ft 237kts
06-Jun-18 17:44 33.783022 -118.269580 316 6500ft 238kts
06-Jun-18 17:45 33.832388 -118.323024 316 6501ft 238kts
06-Jun-18 17:46 33.881616 -118.376289 316 6503ft 238kts
06-Jun-18 17:47 33.930854 -118.429257 323 6497ft 239kts
06-Jun-18 17:48 33.991855 -118.460451 338 6500ft 237kts
06-Jun-18 17:49 34.052543 -118.490197 336 6497ft 234kts
06-Jun-18 17:50 34.112929 -118.519636 336 6484ft 233kts
06-Jun-18 17:51 34.148875 -118.577320 283 6474ft 228kts
06-Jun-18 17:52 34.164448 -118.651970 283 6475ft 228kts
06-Jun-18 17:53 34.182917 -118.724373 290 6484ft 228kts
06-Jun-18 17:54 34.206535 -118.795455 291 6502ft 227kts
06-Jun-18 17:55 34.228861 -118.865660 282 6501ft 227kts
06-Jun-18 17:56 34.237870 -118.940908 277 6491ft 226kts
06-Jun-18 17:57 34.245732 -119.016408 275 6493ft 226kts
06-Jun-18 17:58 34.255978 -119.091643 280 6495ft 226kts
06-Jun-18 17:59 34.267949 -119.166123 280 6499ft 226kts
06-Jun-18 18:00 34.279751 -119.240585 280 6504ft 225kts
06-Jun-18 18:01 34.291287 -119.302330 287 6379ft 230kts
06-Jun-18 18:02 34.312544 -119.374615 291 5878ft 224kts
06-Jun-18 18:03 34.337607 -119.442198 296 5377ft 217kts
06-Jun-18 18:04 34.364575 -119.507135 297 4877ft 214kts
06-Jun-18 18:05 34.390075 -119.568870 297 4499ft 191kts
06-Jun-18 18:06 34.409942 -119.620586 294 4471ft 156kts
06-Jun-18 18:07 34.422582 -119.669973 283 3812ft 151kts
06-Jun-18 18:08 34.427699 -119.718817 275 2667ft 130kts
06-Jun-18 18:09 34.428864 -119.761313 271 1446ft 116kts
06-Jun-18 18:10 34.428901 -119.798215 264 608ft 106kts
06-Jun-18 18:11 34.427926 -119.832812 265 72ft 103kts
06-Jun-18 18:12 34.428487 -119.845507 63 13ft 10kts
06-Jun-18 18:13 34.429698 -119.842429 64 13ft 11kts
06-Jun-18 18:14 34.431092 -119.838522 70 13ft 16kts
06-Jun-18 18:15 34.432396 -119.835984 342 13ft 5kts
06-Jun-18 18:16 34.432769 -119.836264 79 13ft 0kts
06-Jun-18 18:17 34.432769 -119.836264 79 13ft 0kts
06-Jun-18 18:18 34.432769 -119.836264 79 13ft 0kts

Navigation Log

Ident Type
Flight plan parsing failed, navigation log unavailable